createdAt,value
2023-03-20T00:02:25.646Z,52.30
2023-03-20T00:04:54.125Z,51.80
2023-03-20T00:07:22.518Z,56.80
2023-03-20T00:09:51.017Z,56.50
2023-03-20T00:12:26.686Z,56.90
2023-03-20T00:14:55.222Z,66.10
2023-03-20T00:17:23.603Z,64.80
2023-03-20T00:19:51.968Z,65.90
2023-03-20T00:22:20.414Z,59.20
2023-03-20T00:24:48.794Z,56.00
2023-03-20T00:27:18.132Z,54.70
2023-03-20T00:29:46.556Z,54.20
2023-03-20T00:32:15.619Z,54.10
2023-03-20T00:34:44.016Z,50.20
2023-03-20T00:37:12.703Z,45.30
2023-03-20T00:39:41.864Z,50.00
2023-03-20T00:42:22.439Z,44.30
2023-03-20T00:44:55.923Z,47.80
2023-03-20T00:47:25.652Z,43.30
2023-03-20T00:49:56.139Z,45.30
2023-03-20T00:52:25.259Z,40.90
2023-03-20T00:54:53.700Z,39.40
2023-03-20T00:57:34.163Z,43.70
2023-03-20T01:00:38.095Z,47.10
2023-03-20T01:03:23.180Z,43.30
2023-03-20T01:05:52.346Z,43.70
2023-03-20T01:08:24.495Z,49.30
2023-03-20T01:10:55.761Z,43.80
2023-03-20T01:13:30.615Z,43.30
2023-03-20T01:15:59.553Z,42.90
2023-03-20T01:18:27.975Z,47.40
2023-03-20T01:20:56.380Z,42.00
2023-03-20T01:23:26.667Z,46.30
2023-03-20T01:25:55.056Z,46.80
2023-03-20T01:28:24.454Z,42.40
2023-03-20T01:30:52.866Z,46.30
2023-03-20T01:33:26.701Z,47.80
2023-03-20T01:35:55.127Z,38.50
2023-03-20T01:38:27.208Z,37.50
2023-03-20T01:41:16.625Z,41.40
2023-03-20T01:43:46.122Z,34.70
2023-03-20T01:46:29.939Z,36.20
2023-03-20T01:49:20.032Z,37.20
2023-03-20T01:51:50.862Z,37.80
2023-03-20T01:54:27.373Z,37.90
2023-03-20T01:57:19.939Z,35.70
2023-03-20T02:00:16.846Z,37.90
2023-03-20T02:02:47.978Z,34.60
2023-03-20T02:05:21.970Z,35.40
2023-03-20T02:08:10.611Z,34.80
2023-03-20T02:10:40.956Z,35.00
2023-03-20T02:13:11.044Z,31.60
2023-03-20T02:16:04.866Z,31.20
2023-03-20T02:18:34.546Z,27.50
2023-03-20T02:21:42.321Z,30.90
2023-03-20T02:24:36.695Z,27.80
2023-03-20T02:27:30.382Z,30.80
2023-03-20T02:30:40.221Z,30.00
2023-03-20T02:33:29.952Z,28.30
2023-03-20T02:36:46.709Z,26.80
2023-03-20T02:39:43.299Z,29.40
2023-03-20T02:42:49.148Z,27.20
2023-03-20T02:45:29.546Z,27.20
2023-03-20T02:48:28.432Z,27.00
2023-03-20T02:51:14.973Z,27.70
2023-03-20T02:53:59.175Z,26.70
2023-03-20T02:56:49.336Z,30.00
2023-03-20T02:59:49.856Z,29.80
2023-03-20T03:02:37.999Z,30.00
2023-03-20T03:05:16.425Z,28.00
2023-03-20T03:07:50.422Z,32.00
2023-03-20T03:10:55.622Z,31.30
2023-03-20T03:13:29.829Z,30.60
2023-03-20T03:16:06.860Z,30.70
2023-03-20T03:18:37.760Z,30.00
2023-03-20T03:21:08.836Z,32.30
2023-03-20T03:23:47.926Z,34.60
2023-03-20T03:26:31.546Z,30.70
2023-03-20T03:29:17.398Z,30.10
2023-03-20T03:31:46.730Z,32.70
2023-03-20T03:34:19.367Z,41.60
2023-03-20T03:37:21.951Z,31.80
2023-03-20T03:39:56.440Z,35.70
2023-03-20T03:42:53.597Z,31.30
2023-03-20T03:45:33.964Z,31.90
2023-03-20T03:48:23.210Z,30.70
2023-03-20T03:51:00.536Z,33.10
2023-03-20T03:53:38.377Z,35.20
2023-03-20T03:56:12.379Z,37.60
2023-03-20T03:58:48.045Z,36.00
2023-03-20T04:01:19.022Z,35.50
2023-03-20T04:03:53.280Z,37.40
2023-03-20T04:06:22.811Z,39.10
2023-03-20T04:08:51.905Z,36.20
2023-03-20T04:11:30.344Z,35.90
2023-03-20T04:13:58.736Z,33.90
2023-03-20T04:16:27.232Z,34.20
2023-03-20T04:18:56.590Z,33.50
2023-03-20T04:21:25.004Z,34.00
2023-03-20T04:23:53.343Z,31.40
2023-03-20T04:26:21.955Z,31.70
2023-03-20T04:28:51.725Z,31.40
2023-03-20T04:31:20.485Z,34.60
2023-03-20T04:33:48.916Z,32.20
2023-03-20T04:36:17.258Z,33.60
2023-03-20T04:38:45.721Z,29.00
2023-03-20T04:41:14.303Z,30.30
2023-03-20T04:43:42.691Z,26.90
2023-03-20T04:46:11.137Z,28.00
2023-03-20T04:48:39.538Z,27.40
2023-03-20T04:51:08.010Z,28.40
2023-03-20T04:53:36.785Z,28.40
2023-03-20T04:56:05.785Z,27.00
2023-03-20T04:58:35.979Z,26.50
2023-03-20T05:01:04.519Z,25.70
2023-03-20T05:03:33.452Z,26.40
2023-03-20T05:06:01.791Z,27.60
2023-03-20T05:08:30.197Z,27.60
2023-03-20T05:10:58.514Z,24.70
2023-03-20T05:13:27.055Z,24.20
2023-03-20T05:15:55.411Z,24.80
2023-03-20T05:18:23.752Z,24.80
2023-03-20T05:20:52.133Z,25.80
2023-03-20T05:23:20.694Z,26.90
2023-03-20T05:25:49.036Z,26.40
2023-03-20T05:28:17.372Z,27.30
2023-03-20T05:30:46.036Z,24.90
2023-03-20T05:33:14.463Z,24.90
2023-03-20T05:35:42.845Z,23.00
2023-03-20T05:38:11.393Z,30.70
2023-03-20T05:40:41.925Z,26.50
2023-03-20T05:43:10.212Z,25.80
2023-03-20T05:45:38.629Z,34.60
2023-03-20T05:48:07.033Z,25.20
2023-03-20T05:50:35.398Z,25.40
2023-03-20T05:53:03.832Z,26.70
2023-03-20T05:55:33.287Z,25.10
2023-03-20T05:58:01.984Z,26.60
2023-03-20T06:00:30.311Z,27.00
2023-03-20T06:02:58.674Z,26.70
2023-03-20T06:05:27.142Z,26.60
2023-03-20T06:07:55.539Z,27.00
2023-03-20T06:10:23.903Z,27.50
2023-03-20T06:12:52.260Z,27.10
2023-03-20T06:15:20.588Z,27.60
2023-03-20T06:17:48.946Z,26.30
2023-03-20T06:20:17.920Z,25.50
2023-03-20T06:22:46.930Z,29.20
2023-03-20T06:25:15.581Z,28.30
2023-03-20T06:27:46.060Z,26.50
2023-03-20T06:30:16.833Z,27.00
2023-03-20T06:45:06.713Z,26.40
2023-03-20T06:47:35.512Z,26.20
2023-03-20T06:50:04.646Z,27.00
2023-03-20T06:52:33.010Z,27.80
2023-03-20T06:55:02.538Z,27.00
2023-03-20T06:57:30.982Z,27.20
2023-03-20T07:00:00.197Z,28.50
2023-03-20T07:02:28.711Z,26.70
2023-03-20T07:04:57.138Z,27.80
2023-03-20T07:07:25.824Z,26.60
2023-03-20T07:09:54.186Z,26.90
2023-03-20T07:12:26.472Z,28.20
2023-03-20T07:14:55.184Z,25.70
2023-03-20T07:17:23.616Z,25.40
2023-03-20T07:19:52.703Z,24.90
2023-03-20T07:22:29.332Z,27.80
2023-03-20T07:24:58.298Z,23.70
2023-03-20T07:27:27.262Z,24.40
2023-03-20T07:29:55.720Z,26.00
2023-03-20T07:32:24.092Z,24.10
2023-03-20T07:34:52.704Z,24.50
2023-03-20T07:37:21.116Z,26.30
2023-03-20T07:39:50.074Z,24.40
2023-03-20T07:42:18.551Z,24.10
2023-03-20T07:44:47.202Z,27.00
2023-03-20T07:47:16.124Z,26.20
2023-03-20T07:49:44.505Z,23.50
2023-03-20T07:52:12.794Z,24.20
2023-03-20T07:54:41.294Z,22.10
2023-03-20T07:57:09.588Z,22.10
2023-03-20T07:59:38.045Z,22.40
2023-03-20T08:02:06.695Z,20.50
2023-03-20T08:04:35.584Z,23.20
2023-03-20T08:07:03.943Z,20.00
2023-03-20T08:09:32.536Z,23.30
2023-03-20T08:12:00.886Z,23.20
2023-03-20T08:14:29.233Z,22.60
2023-03-20T08:17:12.949Z,25.00
2023-03-20T08:19:42.888Z,26.50
2023-03-20T08:22:11.516Z,23.60
2023-03-20T08:24:39.906Z,24.30
2023-03-20T08:27:08.277Z,25.50
2023-03-20T08:29:36.791Z,24.50
2023-03-20T08:32:06.185Z,24.90
2023-03-20T08:34:35.462Z,23.10
2023-03-20T08:37:05.026Z,24.90
2023-03-20T08:39:33.631Z,26.10
2023-03-20T08:42:02.062Z,24.40
2023-03-20T08:44:30.428Z,24.80
2023-03-20T08:46:59.069Z,25.30
2023-03-20T08:49:27.908Z,25.50
2023-03-20T08:51:56.310Z,25.90
2023-03-20T08:54:25.294Z,27.60
2023-03-20T08:56:53.908Z,30.90
2023-03-20T08:59:22.340Z,27.30
2023-03-20T09:01:50.907Z,26.60
2023-03-20T09:04:19.378Z,24.10
2023-03-20T09:06:47.803Z,24.10
2023-03-20T09:09:18.625Z,27.80
2023-03-20T09:11:47.262Z,27.30
2023-03-20T09:14:16.135Z,26.50
2023-03-20T09:16:44.633Z,27.70
2023-03-20T09:19:12.956Z,28.30
2023-03-20T09:21:41.283Z,27.40
2023-03-20T09:24:09.652Z,26.10
2023-03-20T09:26:39.274Z,26.30
2023-03-20T09:29:07.649Z,28.20
2023-03-20T09:31:36.062Z,25.50
2023-03-20T09:34:04.621Z,24.90
2023-03-20T09:36:33.768Z,25.00
2023-03-20T09:43:09.871Z,26.20
2023-03-20T09:46:16.114Z,28.20
2023-03-20T09:49:40.998Z,24.30
2023-03-20T09:52:30.376Z,24.20
2023-03-20T09:55:36.248Z,24.60
2023-03-20T09:58:21.791Z,22.80
2023-03-20T10:00:50.283Z,24.00
2023-03-20T10:03:24.784Z,25.80
2023-03-20T10:06:13.812Z,23.40
2023-03-20T10:08:43.263Z,23.00
2023-03-20T10:11:53.297Z,21.20
2023-03-20T10:14:29.522Z,21.60
2023-03-20T10:17:27.118Z,21.20
2023-03-20T10:20:11.264Z,20.90
2023-03-20T10:22:50.162Z,20.80
2023-03-20T10:25:46.198Z,19.40
2023-03-20T10:31:07.078Z,19.30
2023-03-20T10:33:56.693Z,18.00
2023-03-20T10:36:57.230Z,16.30
2023-03-20T10:39:55.761Z,17.20
2023-03-20T10:42:37.851Z,15.40
2023-03-20T10:45:31.379Z,16.30
2023-03-20T10:48:06.656Z,13.40
2023-03-20T10:50:46.321Z,14.90
2023-03-20T10:53:41.298Z,13.00
2023-03-20T10:56:30.766Z,13.80
2023-03-20T10:59:34.410Z,15.00
2023-03-20T11:02:02.865Z,13.50
2023-03-20T11:04:31.265Z,13.50
2023-03-20T11:07:12.626Z,12.60
2023-03-20T11:09:41.769Z,12.50
2023-03-20T11:12:20.370Z,11.50
2023-03-20T11:14:48.732Z,13.90
2023-03-20T11:17:17.078Z,12.70
2023-03-20T11:19:45.678Z,12.20
2023-03-20T11:22:26.376Z,12.10
2023-03-20T11:25:01.601Z,12.70
2023-03-20T11:27:34.947Z,13.40
2023-03-20T11:30:19.925Z,12.70
2023-03-20T11:32:54.443Z,12.50
2023-03-20T11:35:25.707Z,12.10
2023-03-20T11:38:21.854Z,13.10
2023-03-20T11:40:55.025Z,13.00
2023-03-20T11:43:28.148Z,14.10
2023-03-20T11:46:04.655Z,14.90
2023-03-20T11:48:41.384Z,13.10
2023-03-20T11:51:21.935Z,12.50
2023-03-20T11:54:05.677Z,15.30
2023-03-20T11:56:35.626Z,14.20
2023-03-20T11:59:19.019Z,14.80
2023-03-20T12:01:56.678Z,13.80
2023-03-20T12:04:34.645Z,14.40
2023-03-20T12:07:32.604Z,15.20
2023-03-20T12:10:12.722Z,8.40
2023-03-20T12:12:50.165Z,7.70
2023-03-20T12:15:34.459Z,7.60
2023-03-20T12:18:22.964Z,7.30
2023-03-20T12:21:15.240Z,7.60
2023-03-20T12:24:08.074Z,8.80
2023-03-20T12:26:58.965Z,8.30
2023-03-20T12:29:36.496Z,9.50
2023-03-20T12:32:28.416Z,8.20
2023-03-20T12:35:10.838Z,7.40
2023-03-20T12:37:39.160Z,7.80
2023-03-20T12:40:17.274Z,8.10
2023-03-20T12:43:15.374Z,8.10
2023-03-20T12:46:30.520Z,7.90
2023-03-20T12:49:34.275Z,7.20
2023-03-20T12:52:48.177Z,7.60
2023-03-20T12:56:03.753Z,7.00
2023-03-20T12:59:02.202Z,10.10
2023-03-20T13:01:49.667Z,9.40
2023-03-20T13:04:57.113Z,8.00
2023-03-20T13:08:12.075Z,8.90
2023-03-20T13:11:18.430Z,8.40
2023-03-20T13:14:03.103Z,8.40
2023-03-20T13:16:55.358Z,8.60
2023-03-20T13:19:42.307Z,9.90
2023-03-20T13:22:45.576Z,8.70
2023-03-20T13:25:43.676Z,10.80
2023-03-20T13:29:12.871Z,11.00
2023-03-20T13:31:49.876Z,9.60
2023-03-20T13:34:36.453Z,10.90
2023-03-20T13:37:23.475Z,10.20
2023-03-20T13:40:11.498Z,11.00
2023-03-20T13:43:08.336Z,11.40
2023-03-20T13:45:42.318Z,12.60
2023-03-20T13:48:36.497Z,15.00
2023-03-20T13:51:44.619Z,6.50
2023-03-20T13:54:31.770Z,2.70
2023-03-20T13:57:44.139Z,4.50
2023-03-20T14:00:24.834Z,1.80
2023-03-20T14:03:14.042Z,1.20
2023-03-20T14:05:44.256Z,1.60
2023-03-20T14:08:36.886Z,1.80
2023-03-20T14:11:21.821Z,1.20
2023-03-20T14:13:57.139Z,2.70
2023-03-20T14:16:28.921Z,1.70
2023-03-20T14:19:21.270Z,1.90
2023-03-20T14:21:56.707Z,2.30
2023-03-20T14:24:28.526Z,2.50
2023-03-20T14:27:01.176Z,3.00
2023-03-20T14:29:29.459Z,4.60
2023-03-20T14:32:13.250Z,4.00
2023-03-20T14:34:52.095Z,4.60
2023-03-20T14:37:37.991Z,4.80
2023-03-20T14:40:29.055Z,5.00
2023-03-20T14:44:07.951Z,4.10
2023-03-20T14:46:42.430Z,6.80
2023-03-20T14:49:45.981Z,6.10
2023-03-20T14:52:30.474Z,7.10
2023-03-20T14:55:49.589Z,7.10
2023-03-20T14:58:53.788Z,8.00
2023-03-20T15:01:22.157Z,6.00
2023-03-20T15:04:06.896Z,2.70
2023-03-20T15:06:45.669Z,3.10
2023-03-20T15:09:15.609Z,5.10
2023-03-20T15:11:44.317Z,4.80
2023-03-20T15:14:21.786Z,5.00
2023-03-20T15:16:58.745Z,5.60
2023-03-20T15:19:27.857Z,4.80
2023-03-20T15:21:56.672Z,4.70
2023-03-20T15:24:30.068Z,3.10
2023-03-20T15:27:01.874Z,8.50
2023-03-20T15:29:33.118Z,9.10
2023-03-20T15:32:13.897Z,3.10
2023-03-20T15:34:44.203Z,4.90
2023-03-20T15:37:20.617Z,3.20
2023-03-20T15:39:55.464Z,3.80
2023-03-20T15:42:26.659Z,3.40
2023-03-20T15:44:56.845Z,3.00
2023-03-20T15:47:26.237Z,3.10
2023-03-20T15:50:00.852Z,7.60
2023-03-20T15:52:53.314Z,3.30
2023-03-20T15:55:24.803Z,7.20
2023-03-20T15:57:57.756Z,3.40
2023-03-20T16:00:42.219Z,3.00
2023-03-20T16:03:18.703Z,6.60
2023-03-20T16:05:52.059Z,3.90
2023-03-20T16:08:27.093Z,5.10
2023-03-20T16:10:59.738Z,7.90
2023-03-20T16:13:51.868Z,8.60
2023-03-20T16:16:24.636Z,6.10
2023-03-20T16:18:53.196Z,3.40
2023-03-20T16:21:29.333Z,4.50
2023-03-20T16:23:59.857Z,4.00
2023-03-20T16:26:28.651Z,2.60
2023-03-20T16:29:02.752Z,2.60
2023-03-20T16:31:35.253Z,2.70
2023-03-20T16:34:18.190Z,2.70
2023-03-20T16:36:59.400Z,3.30
2023-03-20T16:39:31.260Z,4.00
2023-03-20T16:42:22.945Z,3.60
2023-03-20T16:44:58.726Z,2.90
2023-03-20T16:47:38.323Z,3.60
2023-03-20T16:50:23.632Z,3.70
2023-03-20T16:52:58.409Z,4.10
2023-03-20T16:55:31.736Z,5.10
2023-03-20T16:58:05.962Z,3.60
2023-03-20T17:01:06.225Z,4.30
2023-03-20T17:03:40.140Z,3.60
2023-03-20T17:06:21.722Z,5.50
2023-03-20T17:08:59.767Z,4.70
2023-03-20T17:11:33.323Z,4.90
2023-03-20T17:14:04.387Z,5.50
2023-03-20T17:16:36.766Z,5.90
2023-03-20T17:19:17.321Z,4.90
2023-03-20T17:21:46.899Z,8.20
2023-03-20T17:24:17.223Z,9.20
2023-03-20T17:26:54.759Z,11.80
2023-03-20T17:29:23.171Z,11.10
2023-03-20T17:31:51.808Z,9.90
2023-03-20T17:34:20.324Z,9.20
2023-03-20T17:36:48.979Z,8.90
2023-03-20T17:39:20.266Z,10.20
2023-03-20T17:41:48.692Z,9.10
2023-03-20T17:44:17.052Z,12.80
2023-03-20T17:46:57.334Z,9.20
2023-03-20T17:49:27.680Z,6.50
2023-03-20T17:51:56.556Z,7.70
2023-03-20T17:54:25.301Z,9.70
2023-03-20T17:56:53.816Z,15.00
2023-03-20T17:59:22.243Z,16.00
2023-03-20T18:01:50.989Z,13.90
2023-03-20T18:04:19.922Z,24.50
2023-03-20T18:06:49.178Z,33.10
2023-03-20T18:09:17.808Z,22.50
2023-03-20T18:11:46.190Z,11.00
2023-03-20T18:14:18.030Z,17.20
2023-03-20T18:16:46.606Z,14.70
2023-03-20T18:19:29.270Z,16.60
2023-03-20T18:21:57.961Z,15.50
2023-03-20T18:24:27.056Z,12.90
2023-03-20T18:26:55.564Z,7.80
2023-03-20T18:29:23.870Z,9.00
2023-03-20T18:31:52.960Z,9.30
2023-03-20T18:34:21.414Z,10.70
2023-03-20T18:36:49.818Z,9.50
2023-03-20T18:39:20.797Z,9.10
2023-03-20T18:41:49.607Z,8.60
2023-03-20T18:44:18.039Z,11.10
2023-03-20T18:46:46.503Z,11.50
2023-03-20T18:49:18.038Z,11.70
2023-03-20T18:51:46.797Z,14.40
2023-03-20T18:54:15.100Z,16.40
2023-03-20T18:56:43.455Z,11.70
2023-03-20T18:59:12.978Z,18.10
2023-03-20T19:01:41.478Z,13.90
2023-03-20T19:04:10.012Z,12.00
2023-03-20T19:06:38.585Z,12.10
2023-03-20T19:09:07.762Z,13.50
2023-03-20T19:11:36.117Z,13.30
2023-03-20T19:14:04.509Z,17.40
2023-03-20T19:16:36.039Z,13.00
2023-03-20T19:19:08.108Z,12.80
2023-03-20T19:21:36.984Z,14.20
2023-03-20T19:24:07.392Z,28.00
2023-03-20T19:26:37.507Z,13.20
2023-03-20T19:29:09.206Z,16.20
2023-03-20T19:31:37.830Z,15.40
2023-03-20T19:34:06.888Z,16.10
2023-03-20T19:36:37.849Z,14.20
2023-03-20T19:39:10.912Z,15.00
2023-03-20T19:41:39.364Z,14.90
2023-03-20T19:44:08.557Z,15.00
2023-03-20T19:46:41.671Z,20.00
2023-03-20T19:49:20.295Z,15.20
2023-03-20T19:51:49.814Z,15.10
2023-03-20T19:54:18.241Z,16.00
2023-03-20T19:56:46.737Z,14.90
2023-03-20T19:59:16.835Z,18.50
2023-03-20T20:01:46.044Z,16.30
2023-03-20T20:04:15.752Z,15.40
2023-03-20T20:06:47.116Z,17.00
2023-03-20T20:09:16.341Z,14.90
2023-03-20T20:11:44.800Z,16.50
2023-03-20T20:14:14.764Z,12.90
2023-03-20T20:16:45.497Z,15.80
2023-03-20T20:19:14.639Z,16.90
2023-03-20T20:22:25.334Z,15.80
2023-03-20T20:24:34.164Z,15.80
2023-03-20T20:27:16.388Z,15.50
2023-03-20T20:29:52.608Z,17.30
2023-03-20T20:32:24.670Z,18.90
2023-03-20T20:38:27.178Z,20.60
2023-03-20T20:40:32.224Z,18.80
2023-03-20T20:43:02.437Z,21.10
2023-03-20T20:45:32.098Z,20.80
2023-03-20T20:48:02.621Z,22.00
2023-03-20T20:50:33.373Z,25.90
2023-03-20T20:53:04.134Z,22.60
2023-03-20T20:55:32.517Z,22.80
2023-03-20T20:58:01.677Z,25.10
2023-03-20T21:00:48.403Z,24.50
2023-03-20T21:03:18.502Z,25.90
2023-03-20T21:05:46.819Z,27.20
2023-03-20T21:08:16.394Z,25.00
2023-03-20T21:10:47.171Z,26.80
2023-03-20T21:13:16.157Z,30.30
2023-03-20T21:15:45.683Z,29.30
2023-03-20T21:18:14.672Z,32.70
2023-03-20T21:20:43.464Z,29.60
2023-03-20T21:23:11.832Z,27.00
2023-03-20T21:25:43.599Z,31.40
2023-03-20T21:28:14.131Z,29.30
2023-03-20T21:30:59.943Z,28.10
2023-03-20T21:33:33.691Z,29.30
2023-03-20T21:36:03.079Z,30.50
2023-03-20T21:39:06.729Z,29.60
2023-03-20T21:41:21.203Z,31.60
2023-03-20T21:43:50.653Z,32.60
2023-03-20T21:46:58.681Z,29.60
2023-03-20T21:49:58.462Z,31.20
2023-03-20T22:03:29.030Z,33.90
2023-03-20T22:20:58.854Z,32.30
2023-03-20T22:35:15.336Z,27.90
2023-03-20T22:38:21.829Z,37.40
2023-03-20T22:43:48.524Z,32.60
2023-03-20T22:46:01.740Z,31.30
2023-03-20T22:48:34.216Z,28.30
2023-03-20T22:51:02.878Z,29.20
2023-03-20T22:53:32.370Z,28.50
2023-03-20T22:56:00.838Z,31.80
2023-03-20T22:58:29.435Z,38.60
2023-03-20T23:00:57.880Z,31.10
2023-03-20T23:03:40.336Z,35.50
2023-03-20T23:06:20.005Z,38.60
2023-03-20T23:08:55.211Z,32.00
2023-03-20T23:11:27.503Z,27.40
2023-03-20T23:13:56.506Z,32.40
2023-03-20T23:16:24.875Z,27.60
2023-03-20T23:18:53.427Z,26.90
2023-03-20T23:21:21.756Z,24.50
2023-03-20T23:23:50.220Z,26.50
2023-03-20T23:26:21.023Z,24.90
2023-03-20T23:28:52.629Z,23.30
2023-03-20T23:31:25.094Z,21.90
2023-03-20T23:33:56.988Z,20.80
2023-03-20T23:36:37.276Z,22.10
2023-03-20T23:39:08.973Z,19.60
2023-03-20T23:44:25.973Z,25.10
2023-03-20T23:46:55.437Z,24.40
2023-03-20T23:49:24.515Z,25.80
2023-03-20T23:51:53.130Z,24.60
2023-03-20T23:54:21.723Z,25.10
2023-03-20T23:56:50.047Z,25.30
2023-03-20T23:59:22.171Z,26.00
